Impacts METAR Board INFO
IDs:

KSAN - San Diego Intl Arpt, CA, US

Updated at: 0338 UTC 19 Feb 2018
Potential Impact None Slight Moderate High
Time18/15Z 18/16Z 18/17Z 18/18Z 18/19Z 18/20Z 18/21Z 18/22Z 18/23Z 19/00Z 19/01Z 19/02Z 19/03Z
VIS10 10 10 10 10 10 10 10 10 10 10 10 10
CIG60 250 250 60 60 250 60 -- -- -- 250 23 20
CoverBKNBKNBKNBKNBKNBKNBKNSCTSCTSCTBKNBKNBKN
FltCatVFRVFRVFRVFRVFRVFRVFRVFRVFRVFRVFRMVFRMVFR
WX--------------------------
WDir000330210300300300250250230230210
WSpd0 0 0 4 6 10 6 8 8 10 8 8 7
WGst-- -- -- -- -- -- -- -- -- -- -- -- --
Raw hourly METARs
KSAN 181451Z 00000KT 10SM BKN060 BKN200 12/01 A3001 RMK AO2 SLP163 T01220006 53002
KSAN 181551Z 00000KT 10SM FEW007 SCT060 BKN250 14/02 A3002 RMK AO2 SLP166 T01440022
KSAN 181651Z 00000KT 10SM SCT060 BKN250 17/09 A3003 RMK AO2 SLP167 T01670089
KSAN 181751Z 33004KT 10SM BKN060 BKN250 18/12 A3003 RMK AO2 SLP167 T01780122 10183 20117 51004
KSAN 181851Z 21006KT 10SM BKN060 BKN250 18/12 A3002 RMK AO2 SLP163 T01830117
KSAN 181951Z 30010KT 10SM FEW060 BKN250 19/11 A3001 RMK AO2 SLP160 T01940111
KSAN 182051Z 30006KT 10SM FEW030 BKN060 BKN250 19/11 A2998 RMK AO2 SLP150 T01890111 58017
KSAN 182151Z 30008KT 10SM FEW030 SCT060 SCT250 19/10 A2996 RMK AO2 SLP145 T01940100
KSAN 182251Z 25008KT 10SM FEW030 SCT060 SCT250 19/06 A2994 RMK AO2 SLP138 T01890056
KSAN 182351Z 25010KT 10SM FEW030 SCT060 SCT250 18/09 A2995 RMK AO2 SLP140 T01780094 10200 20178 55010
KSAN 190051Z 23008KT 10SM SCT030 SCT060 BKN250 16/11 A2994 RMK AO2 SLP137 T01610106
KSAN 190151Z 23008KT 10SM BKN023 BKN060 16/10 A2994 RMK AO2 SLP138 T01560100
KSAN 190251Z 21007KT 10SM BKN020 BKN060 16/09 A2994 RMK AO2 SLP138 T01560094 55001